JNA273 RKSI-RJFF
Flight info
| Callsign | JNA273 |
|---|---|
| Flight time | 0h 53m |
| Altitude | 31000 |
| Route | OSPOT2Y OSPOT Y782 TGU Y781 BESNA Y209 SARUP |
| Aircraft | B738/M-SDE2E3FGHIRWXY/LB1 |
Departure
| Time | 2026-05-07 12:08 |
|---|---|
| Airport | Incheon International Airport (RKSI) |
Arrival
| Time | 2026-05-07 13:01 |
|---|---|
| Airport | Fukuoka Airport (RJFF) |
| Time | Latitude | Longitude | Altitude | Speed | Heading |
|---|---|---|---|---|---|
| 2026-05-07 12:08 | 37.27882 | 126.48809 | 13631 ft | 388 kts | 122° |
| 2026-05-07 12:08 | 37.26437 | 126.51720 | 14197 ft | 389 kts | 122° |
| 2026-05-07 12:08 | 37.24994 | 126.54603 | 14758 ft | 391 kts | 122° |
| 2026-05-07 12:09 | 37.23528 | 126.57512 | 15182 ft | 397 kts | 123° |
| 2026-05-07 12:09 | 37.22061 | 126.60410 | 15612 ft | 400 kts | 123° |
| 2026-05-07 12:09 | 37.20553 | 126.63382 | 16060 ft | 403 kts | 123° |
| 2026-05-07 12:09 | 37.19039 | 126.66357 | 16486 ft | 406 kts | 123° |
| 2026-05-07 12:10 | 37.17515 | 126.69351 | 16884 ft | 409 kts | 123° |
| 2026-05-07 12:10 | 37.15970 | 126.72381 | 17262 ft | 412 kts | 123° |
| 2026-05-07 12:10 | 37.14419 | 126.75421 | 17621 ft | 415 kts | 123° |
| 2026-05-07 12:10 | 37.12877 | 126.78441 | 17959 ft | 417 kts | 123° |
| 2026-05-07 12:11 | 37.11307 | 126.81513 | 18285 ft | 420 kts | 123° |
| 2026-05-07 12:11 | 37.09721 | 126.84614 | 18597 ft | 422 kts | 123° |
| 2026-05-07 12:11 | 37.08128 | 126.87725 | 18893 ft | 424 kts | 123° |
| 2026-05-07 12:11 | 37.06547 | 126.90810 | 19159 ft | 427 kts | 123° |
| 2026-05-07 12:12 | 37.04928 | 126.93967 | 19253 ft | 433 kts | 123° |
| 2026-05-07 12:12 | 37.03309 | 126.97122 | 19602 ft | 432 kts | 123° |
| 2026-05-07 12:12 | 37.01683 | 127.00285 | 19940 ft | 431 kts | 123° |
| 2026-05-07 12:12 | 37.00058 | 127.03446 | 20177 ft | 433 kts | 123° |
| 2026-05-07 12:13 | 36.98417 | 127.06632 | 20379 ft | 435 kts | 123° |
| 2026-05-07 12:13 | 36.96776 | 127.09818 | 20577 ft | 437 kts | 123° |
| 2026-05-07 12:13 | 36.95115 | 127.13037 | 20779 ft | 439 kts | 123° |
| 2026-05-07 12:13 | 36.93477 | 127.16211 | 20972 ft | 440 kts | 123° |
| 2026-05-07 12:14 | 36.91812 | 127.19433 | 21156 ft | 442 kts | 123° |
| 2026-05-07 12:14 | 36.90117 | 127.22710 | 21332 ft | 443 kts | 123° |
| 2026-05-07 12:14 | 36.88457 | 127.25918 | 21497 ft | 445 kts | 123° |
| 2026-05-07 12:14 | 36.86772 | 127.29171 | 21657 ft | 446 kts | 123° |
| 2026-05-07 12:15 | 36.85078 | 127.32435 | 21810 ft | 447 kts | 123° |
| 2026-05-07 12:15 | 36.83276 | 127.35602 | 21945 ft | 448 kts | 130° |
| 2026-05-07 12:15 | 36.81099 | 127.38416 | 22117 ft | 448 kts | 136° |
| 2026-05-07 12:15 | 36.78859 | 127.41075 | 22286 ft | 448 kts | 137° |
| 2026-05-07 12:16 | 36.76600 | 127.43758 | 22440 ft | 449 kts | 136° |
| 2026-05-07 12:16 | 36.74349 | 127.46479 | 22540 ft | 451 kts | 136° |
| 2026-05-07 12:16 | 36.72100 | 127.49227 | 22637 ft | 452 kts | 136° |
| 2026-05-07 12:16 | 36.69856 | 127.51982 | 22750 ft | 453 kts | 135° |
| 2026-05-07 12:17 | 36.67611 | 127.54736 | 22862 ft | 454 kts | 136° |
| 2026-05-07 12:17 | 36.65384 | 127.57457 | 22962 ft | 455 kts | 136° |
| 2026-05-07 12:17 | 36.63114 | 127.60226 | 23092 ft | 455 kts | 136° |
| 2026-05-07 12:17 | 36.60851 | 127.62985 | 23219 ft | 455 kts | 136° |
| 2026-05-07 12:18 | 36.58581 | 127.65751 | 23247 ft | 458 kts | 136° |
| 2026-05-07 12:18 | 36.56302 | 127.68527 | 23299 ft | 459 kts | 136° |
| 2026-05-07 12:18 | 36.54002 | 127.71326 | 23265 ft | 462 kts | 136° |
| 2026-05-07 12:18 | 36.51707 | 127.74118 | 23445 ft | 460 kts | 136° |
| 2026-05-07 12:19 | 36.49417 | 127.76902 | 23575 ft | 459 kts | 136° |
| 2026-05-07 12:19 | 36.47146 | 127.79659 | 23664 ft | 460 kts | 136° |
| 2026-05-07 12:19 | 36.44858 | 127.82433 | 23722 ft | 461 kts | 136° |
| 2026-05-07 12:19 | 36.42564 | 127.85219 | 23776 ft | 461 kts | 136° |
| 2026-05-07 12:20 | 36.40266 | 127.88009 | 23845 ft | 462 kts | 136° |
| 2026-05-07 12:20 | 36.37960 | 127.90810 | 23868 ft | 463 kts | 136° |
| 2026-05-07 12:20 | 36.35653 | 127.93608 | 23878 ft | 465 kts | 136° |
| 2026-05-07 12:20 | 36.33328 | 127.96428 | 23810 ft | 468 kts | 136° |
| 2026-05-07 12:21 | 36.31001 | 127.99247 | 23912 ft | 466 kts | 136° |
| 2026-05-07 12:21 | 36.28682 | 128.02052 | 24034 ft | 465 kts | 136° |
| 2026-05-07 12:21 | 36.26359 | 128.04860 | 24030 ft | 466 kts | 136° |
| 2026-05-07 12:21 | 36.24061 | 128.07629 | 24130 ft | 465 kts | 136° |
| 2026-05-07 12:22 | 36.21743 | 128.10417 | 24222 ft | 465 kts | 136° |
| 2026-05-07 12:22 | 36.19419 | 128.13211 | 24268 ft | 465 kts | 136° |
| 2026-05-07 12:22 | 36.17092 | 128.16007 | 24279 ft | 466 kts | 136° |
| 2026-05-07 12:22 | 36.14766 | 128.18800 | 24309 ft | 467 kts | 136° |
| 2026-05-07 12:23 | 36.12437 | 128.21595 | 24367 ft | 466 kts | 136° |
| 2026-05-07 12:23 | 36.10097 | 128.24401 | 24415 ft | 466 kts | 136° |
| 2026-05-07 12:23 | 36.07801 | 128.27153 | 24447 ft | 467 kts | 136° |
| 2026-05-07 12:23 | 36.05466 | 128.29949 | 24517 ft | 467 kts | 136° |
| 2026-05-07 12:24 | 36.03126 | 128.32747 | 24537 ft | 467 kts | 136° |
| 2026-05-07 12:24 | 36.00779 | 128.35551 | 24545 ft | 468 kts | 136° |
| 2026-05-07 12:24 | 35.98432 | 128.38346 | 24565 ft | 468 kts | 136° |
| 2026-05-07 12:24 | 35.96088 | 128.41144 | 24605 ft | 468 kts | 136° |
| 2026-05-07 12:25 | 35.93739 | 128.43949 | 24619 ft | 469 kts | 136° |
| 2026-05-07 12:25 | 35.91417 | 128.46719 | 24636 ft | 469 kts | 136° |
| 2026-05-07 12:25 | 35.89068 | 128.49516 | 24649 ft | 470 kts | 136° |
| 2026-05-07 12:25 | 35.86705 | 128.52326 | 24687 ft | 469 kts | 136° |
| 2026-05-07 12:26 | 35.84343 | 128.55113 | 24713 ft | 469 kts | 138° |
| 2026-05-07 12:26 | 35.81658 | 128.57389 | 24702 ft | 469 kts | 155° |
| 2026-05-07 12:26 | 35.78597 | 128.58622 | 24745 ft | 468 kts | 167° |
| 2026-05-07 12:26 | 35.75467 | 128.59737 | 24767 ft | 469 kts | 161° |
| 2026-05-07 12:27 | 35.72424 | 128.61183 | 24883 ft | 466 kts | 158° |
| 2026-05-07 12:27 | 35.69449 | 128.62719 | 25104 ft | 461 kts | 157° |
| 2026-05-07 12:27 | 35.66509 | 128.64246 | 25443 ft | 454 kts | 158° |
| 2026-05-07 12:27 | 35.63606 | 128.65720 | 25833 ft | 447 kts | 158° |
| 2026-05-07 12:28 | 35.60732 | 128.67139 | 26224 ft | 440 kts | 159° |
| 2026-05-07 12:28 | 35.57923 | 128.68495 | 26611 ft | 435 kts | 159° |
| 2026-05-07 12:28 | 35.55116 | 128.69831 | 27001 ft | 430 kts | 159° |
| 2026-05-07 12:28 | 35.52337 | 128.71141 | 27391 ft | 425 kts | 159° |
| 2026-05-07 12:29 | 35.49587 | 128.72434 | 27783 ft | 420 kts | 159° |
| 2026-05-07 12:29 | 35.46910 | 128.73691 | 28169 ft | 415 kts | 159° |
| 2026-05-07 12:29 | 35.44192 | 128.74967 | 28565 ft | 411 kts | 159° |
| 2026-05-07 12:29 | 35.41557 | 128.76204 | 28953 ft | 407 kts | 159° |
| 2026-05-07 12:30 | 35.38917 | 128.77442 | 29345 ft | 403 kts | 159° |
| 2026-05-07 12:30 | 35.36294 | 128.78673 | 29480 ft | 407 kts | 159° |
| 2026-05-07 12:30 | 35.33627 | 128.79923 | 29522 ft | 412 kts | 159° |
| 2026-05-07 12:31 | 35.28199 | 128.82465 | 29610 ft | 421 kts | 159° |
| 2026-05-07 12:31 | 35.22700 | 128.85038 | 29678 ft | 430 kts | 159° |
| 2026-05-07 12:32 | 35.17070 | 128.87668 | 29732 ft | 437 kts | 159° |
| 2026-05-07 12:32 | 35.11355 | 128.90333 | 29777 ft | 442 kts | 159° |
| 2026-05-07 12:33 | 35.02647 | 128.94387 | 29830 ft | 449 kts | 159° |
| 2026-05-07 12:33 | 34.96781 | 128.97113 | 29876 ft | 452 kts | 159° |
| 2026-05-07 12:34 | 34.90890 | 128.99846 | 29900 ft | 455 kts | 159° |
| 2026-05-07 12:34 | 34.84944 | 129.02600 | 29922 ft | 458 kts | 159° |
| 2026-05-07 12:35 | 34.78964 | 129.05368 | 29938 ft | 460 kts | 159° |
| 2026-05-07 12:35 | 34.72966 | 129.08138 | 29985 ft | 461 kts | 159° |
| 2026-05-07 12:36 | 34.67012 | 129.10883 | 29711 ft | 456 kts | 159° |
| 2026-05-07 12:36 | 34.64050 | 129.12247 | 28916 ft | 455 kts | 159° |
| 2026-05-07 12:36 | 34.61131 | 129.13767 | 27893 ft | 458 kts | 152° |
| 2026-05-07 12:37 | 34.58350 | 129.15729 | 26708 ft | 465 kts | 149° |
| 2026-05-07 12:37 | 34.55586 | 129.17828 | 25525 ft | 471 kts | 148° |
| 2026-05-07 12:37 | 34.52854 | 129.19942 | 25246 ft | 455 kts | 148° |
| 2026-05-07 12:37 | 34.50189 | 129.21993 | 25120 ft | 455 kts | 148° |
| 2026-05-07 12:38 | 34.47495 | 129.24041 | 24994 ft | 457 kts | 148° |
| 2026-05-07 12:38 | 34.44816 | 129.26058 | 24858 ft | 451 kts | 149° |
| 2026-05-07 12:38 | 34.42186 | 129.28015 | 24713 ft | 445 kts | 149° |
| 2026-05-07 12:38 | 34.39549 | 129.29972 | 24441 ft | 440 kts | 149° |
| 2026-05-07 12:39 | 34.36949 | 129.31903 | 24189 ft | 435 kts | 149° |
| 2026-05-07 12:39 | 34.34377 | 129.33812 | 23937 ft | 432 kts | 149° |
| 2026-05-07 12:39 | 34.32672 | 129.35077 | 23659 ft | 432 kts | 149° |
| 2026-05-07 12:39 | 34.29257 | 129.37608 | 22958 ft | 436 kts | 149° |
| 2026-05-07 12:40 | 34.27529 | 129.38887 | 22533 ft | 439 kts | 149° |
| 2026-05-07 12:40 | 34.24893 | 129.40839 | 21759 ft | 445 kts | 149° |
| 2026-05-07 12:40 | 34.22249 | 129.42794 | 20934 ft | 445 kts | 149° |
| 2026-05-07 12:40 | 34.19629 | 129.44731 | 20108 ft | 437 kts | 149° |
| 2026-05-07 12:41 | 34.17062 | 129.46628 | 19281 ft | 427 kts | 149° |
| 2026-05-07 12:41 | 34.14562 | 129.48473 | 18466 ft | 422 kts | 149° |
| 2026-05-07 12:41 | 34.12070 | 129.50312 | 17643 ft | 416 kts | 149° |
| 2026-05-07 12:41 | 34.09610 | 129.52125 | 16817 ft | 410 kts | 149° |
| 2026-05-07 12:42 | 34.07184 | 129.53909 | 15992 ft | 404 kts | 149° |
| 2026-05-07 12:42 | 34.04801 | 129.55664 | 15169 ft | 398 kts | 149° |
| 2026-05-07 12:42 | 34.02457 | 129.57402 | 14346 ft | 392 kts | 149° |
| 2026-05-07 12:42 | 34.00165 | 129.59156 | 13573 ft | 387 kts | 148° |
| 2026-05-07 12:43 | 33.97838 | 129.60786 | 13319 ft | 387 kts | 151° |
| 2026-05-07 12:43 | 33.95482 | 129.62353 | 13198 ft | 388 kts | 152° |
| 2026-05-07 12:43 | 33.93114 | 129.63912 | 13108 ft | 385 kts | 152° |
| 2026-05-07 12:43 | 33.90764 | 129.65452 | 12929 ft | 385 kts | 152° |
| 2026-05-07 12:44 | 33.88445 | 129.66967 | 12678 ft | 382 kts | 152° |
| 2026-05-07 12:44 | 33.86113 | 129.68487 | 12429 ft | 380 kts | 152° |
| 2026-05-07 12:44 | 33.83791 | 129.69999 | 12179 ft | 379 kts | 152° |
| 2026-05-07 12:44 | 33.81466 | 129.71513 | 11927 ft | 377 kts | 152° |
| 2026-05-07 12:45 | 33.79157 | 129.73014 | 11678 ft | 376 kts | 152° |
| 2026-05-07 12:45 | 33.76862 | 129.74506 | 11430 ft | 375 kts | 152° |
| 2026-05-07 12:45 | 33.74563 | 129.75999 | 11178 ft | 374 kts | 152° |
| 2026-05-07 12:45 | 33.72305 | 129.77465 | 10931 ft | 373 kts | 152° |
| 2026-05-07 12:46 | 33.70017 | 129.78950 | 10680 ft | 371 kts | 152° |
| 2026-05-07 12:46 | 33.67742 | 129.80425 | 10429 ft | 370 kts | 152° |
| 2026-05-07 12:46 | 33.65479 | 129.81892 | 10178 ft | 368 kts | 152° |
| 2026-05-07 12:46 | 33.63246 | 129.83339 | 9929 ft | 365 kts | 152° |
| 2026-05-07 12:47 | 33.61041 | 129.84775 | 9668 ft | 354 kts | 150° |
| 2026-05-07 12:47 | 33.59119 | 129.86532 | 9395 ft | 342 kts | 134° |
| 2026-05-07 12:47 | 33.57765 | 129.88818 | 9139 ft | 332 kts | 116° |
| 2026-05-07 12:47 | 33.57082 | 129.91413 | 8884 ft | 323 kts | 98° |
| 2026-05-07 12:48 | 33.57115 | 129.94056 | 8632 ft | 315 kts | 79° |
| 2026-05-07 12:48 | 33.57803 | 129.96478 | 8389 ft | 307 kts | 65° |
| 2026-05-07 12:48 | 33.58750 | 129.98741 | 8139 ft | 300 kts | 63° |
| 2026-05-07 12:48 | 33.59713 | 130.00937 | 7883 ft | 294 kts | 62° |
| 2026-05-07 12:49 | 33.60665 | 130.03089 | 7629 ft | 289 kts | 62° |
| 2026-05-07 12:49 | 33.61601 | 130.05198 | 7375 ft | 284 kts | 62° |
| 2026-05-07 12:49 | 33.62528 | 130.07281 | 7121 ft | 280 kts | 62° |
| 2026-05-07 12:49 | 33.63441 | 130.09332 | 6867 ft | 276 kts | 62° |
| 2026-05-07 12:50 | 33.64441 | 130.11242 | 6604 ft | 273 kts | 48° |
| 2026-05-07 12:50 | 33.65922 | 130.12644 | 6355 ft | 271 kts | 27° |
| 2026-05-07 12:50 | 33.67630 | 130.13580 | 6119 ft | 268 kts | 22° |
| 2026-05-07 12:50 | 33.69347 | 130.14443 | 5868 ft | 267 kts | 22° |
| 2026-05-07 12:51 | 33.71058 | 130.15292 | 5619 ft | 265 kts | 22° |
| 2026-05-07 12:51 | 33.72754 | 130.16130 | 5365 ft | 262 kts | 22° |
| 2026-05-07 12:51 | 33.74432 | 130.16956 | 5113 ft | 259 kts | 22° |
| 2026-05-07 12:51 | 33.76093 | 130.17772 | 4881 ft | 256 kts | 22° |
| 2026-05-07 12:52 | 33.77718 | 130.18571 | 4671 ft | 253 kts | 22° |
| 2026-05-07 12:52 | 33.79284 | 130.19516 | 4454 ft | 251 kts | 37° |
| 2026-05-07 12:52 | 33.80468 | 130.21088 | 4216 ft | 259 kts | 60° |
| 2026-05-07 12:52 | 33.81064 | 130.23134 | 3977 ft | 263 kts | 83° |
| 2026-05-07 12:53 | 33.80967 | 130.25314 | 3729 ft | 262 kts | 105° |
| 2026-05-07 12:53 | 33.80193 | 130.27274 | 3448 ft | 259 kts | 128° |
| 2026-05-07 12:53 | 33.78871 | 130.28670 | 3340 ft | 249 kts | 152° |
| 2026-05-07 12:53 | 33.77316 | 130.29445 | 3333 ft | 235 kts | 161° |
| 2026-05-07 12:54 | 33.75796 | 130.30037 | 3294 ft | 223 kts | 169° |
| 2026-05-07 12:54 | 33.74310 | 130.30021 | 3276 ft | 207 kts | 192° |
| 2026-05-07 12:54 | 33.72909 | 130.29668 | 3286 ft | 210 kts | 192° |
| 2026-05-07 12:54 | 33.71407 | 130.29296 | 3196 ft | 226 kts | 192° |
| 2026-05-07 12:55 | 33.69896 | 130.28932 | 3069 ft | 221 kts | 188° |
| 2026-05-07 12:55 | 33.68403 | 130.29040 | 3018 ft | 211 kts | 162° |
| 2026-05-07 12:55 | 33.67179 | 130.29925 | 2919 ft | 207 kts | 135° |
| 2026-05-07 12:55 | 33.66208 | 130.31234 | 2742 ft | 213 kts | 132° |
| 2026-05-07 12:56 | 33.65223 | 130.32582 | 2552 ft | 216 kts | 132° |
| 2026-05-07 12:56 | 33.64232 | 130.33934 | 2351 ft | 212 kts | 132° |
| 2026-05-07 12:56 | 33.63287 | 130.35224 | 2226 ft | 198 kts | 131° |
| 2026-05-07 12:56 | 33.62413 | 130.36419 | 2113 ft | 183 kts | 132° |
| 2026-05-07 12:57 | 33.61616 | 130.37510 | 2074 ft | 168 kts | 134° |
| 2026-05-07 12:57 | 33.60673 | 130.38300 | 2085 ft | 163 kts | 154° |
| 2026-05-07 12:57 | 33.59673 | 130.38927 | 2082 ft | 166 kts | 153° |
| 2026-05-07 12:57 | 33.58651 | 130.39572 | 2015 ft | 164 kts | 153° |
| 2026-05-07 12:58 | 33.57654 | 130.40206 | 1733 ft | 161 kts | 153° |
| 2026-05-07 12:58 | 33.56689 | 130.40847 | 1430 ft | 154 kts | 150° |
| 2026-05-07 12:58 | 33.55833 | 130.41513 | 1382 ft | 148 kts | 146° |
| 2026-05-07 12:58 | 33.54972 | 130.42264 | 1418 ft | 155 kts | 144° |
| 2026-05-07 12:59 | 33.54166 | 130.43130 | 1422 ft | 156 kts | 129° |
| 2026-05-07 12:59 | 33.53664 | 130.44251 | 1401 ft | 150 kts | 107° |
| 2026-05-07 12:59 | 33.53700 | 130.45439 | 1335 ft | 143 kts | 71° |
| 2026-05-07 12:59 | 33.54264 | 130.46394 | 1125 ft | 141 kts | 41° |
| 2026-05-07 13:00 | 33.55120 | 130.46937 | 784 ft | 143 kts | 12° |
| 2026-05-07 13:00 | 33.56049 | 130.46771 | 447 ft | 133 kts | 332° |
| 2026-05-07 13:00 | 33.56858 | 130.46244 | 223 ft | 131 kts | 330° |
| 2026-05-07 13:00 | 33.57661 | 130.45703 | 65 ft | 134 kts | 329° |
| 2026-05-07 13:01 | 33.58412 | 130.45187 | 35 ft | 108 kts | 330° |
| 2026-05-07 13:01 | 33.58930 | 130.44836 | 30 ft | 61 kts | 330° |
| 2026-05-07 13:01 | 33.59134 | 130.44637 | 28 ft | 32 kts | 306° |
| 2026-05-07 13:01 | 33.59174 | 130.44562 | 27 ft | 0 kts | 300° |
| 2026-05-07 13:02 | 33.59205 | 130.44499 | 27 ft | 17 kts | 301° |
| 2026-05-07 13:02 | 33.59213 | 130.44386 | 28 ft | 13 kts | 243° |
| 2026-05-07 13:03 | 33.59146 | 130.44319 | 28 ft | 15 kts | 167° |
| 2026-05-07 13:03 | 33.59048 | 130.44379 | 29 ft | 16 kts | 151° |
| 2026-05-07 13:03 | 33.58946 | 130.44447 | 30 ft | 17 kts | 151° |
| 2026-05-07 13:03 | 33.58853 | 130.44509 | 31 ft | 14 kts | 151° |
| 2026-05-07 13:04 | 33.58817 | 130.44532 | 31 ft | 3 kts | 151° |
| 2026-05-07 13:04 | 33.58759 | 130.44563 | 31 ft | 9 kts | 183° |
| 2026-05-07 13:04 | 33.58723 | 130.44501 | 31 ft | 8 kts | 244° |
| 2026-05-07 13:04 | 33.58699 | 130.44450 | 31 ft | 6 kts | 241° |
| 2026-05-07 13:05 | 33.58686 | 130.44424 | 31 ft | 1 kts | 241° |
| 2026-05-07 13:05 | 33.58686 | 130.44423 | 31 ft | 0 kts | 241° |